sensor_id;sensor_type;location;lat;lon;timestamp;temperature;humidity
30572;DHT22;17348;50.948;10.696;2023-06-24T00:01:36;15.20;99.90
30572;DHT22;17348;50.948;10.696;2023-06-24T00:04:39;15.20;99.90
30572;DHT22;17348;50.948;10.696;2023-06-24T00:07:41;15.20;99.90
30572;DHT22;17348;50.948;10.696;2023-06-24T00:10:46;15.20;99.90
30572;DHT22;17348;50.948;10.696;2023-06-24T00:13:49;15.20;99.90
30572;DHT22;17348;50.948;10.696;2023-06-24T00:16:52;15.20;99.90
30572;DHT22;17348;50.948;10.696;2023-06-24T00:19:55;15.20;99.90
30572;DHT22;17348;50.948;10.696;2023-06-24T00:22:57;15.20;99.90
30572;DHT22;17348;50.948;10.696;2023-06-24T00:26:00;15.20;99.90
30572;DHT22;17348;50.948;10.696;2023-06-24T00:29:04;15.20;99.90
30572;DHT22;17348;50.948;10.696;2023-06-24T00:32:07;15.20;99.90
30572;DHT22;17348;50.948;10.696;2023-06-24T00:35:10;15.20;99.90
30572;DHT22;17348;50.948;10.696;2023-06-24T00:38:13;15.20;99.90
30572;DHT22;17348;50.948;10.696;2023-06-24T00:41:16;15.20;99.90
30572;DHT22;17348;50.948;10.696;2023-06-24T00:44:21;15.20;99.90
30572;DHT22;17348;50.948;10.696;2023-06-24T00:47:23;15.10;99.90
30572;DHT22;17348;50.948;10.696;2023-06-24T00:50:25;15.10;99.90
30572;DHT22;17348;50.948;10.696;2023-06-24T00:53:28;15.10;99.90
30572;DHT22;17348;50.948;10.696;2023-06-24T00:56:33;15.00;99.90
30572;DHT22;17348;50.948;10.696;2023-06-24T00:59:37;14.90;99.90
30572;DHT22;17348;50.948;10.696;2023-06-24T01:02:40;14.80;99.90
30572;DHT22;17348;50.948;10.696;2023-06-24T01:05:44;14.80;99.90
30572;DHT22;17348;50.948;10.696;2023-06-24T01:08:47;14.70;99.90
30572;DHT22;17348;50.948;10.696;2023-06-24T01:11:52;14.70;99.90
30572;DHT22;17348;50.948;10.696;2023-06-24T01:14:55;14.60;99.90
30572;DHT22;17348;50.948;10.696;2023-06-24T01:18:02;14.60;99.90
30572;DHT22;17348;50.948;10.696;2023-06-24T01:21:15;14.60;99.90
30572;DHT22;17348;50.948;10.696;2023-06-24T01:24:35;14.50;99.90
30572;DHT22;17348;50.948;10.696;2023-06-24T01:27:52;14.50;99.90
30572;DHT22;17348;50.948;10.696;2023-06-24T01:34:44;14.30;99.90
30572;DHT22;17348;50.948;10.696;2023-06-24T01:37:52;14.30;99.90
30572;DHT22;17348;50.948;10.696;2023-06-24T01:40:55;14.20;99.90
30572;DHT22;17348;50.948;10.696;2023-06-24T01:43:58;14.20;99.90
30572;DHT22;17348;50.948;10.696;2023-06-24T01:47:05;14.20;99.90
30572;DHT22;17348;50.948;10.696;2023-06-24T01:50:11;14.10;99.90
30572;DHT22;17348;50.948;10.696;2023-06-24T01:53:15;14.10;99.90
30572;DHT22;17348;50.948;10.696;2023-06-24T01:56:20;14.00;99.90
30572;DHT22;17348;50.948;10.696;2023-06-24T01:59:25;14.00;99.90
30572;DHT22;17348;50.948;10.696;2023-06-24T02:02:30;14.00;99.90
30572;DHT22;17348;50.948;10.696;2023-06-24T02:05:36;14.00;99.90
30572;DHT22;17348;50.948;10.696;2023-06-24T02:08:41;13.90;99.90
30572;DHT22;17348;50.948;10.696;2023-06-24T02:11:45;13.90;99.90
30572;DHT22;17348;50.948;10.696;2023-06-24T02:14:49;13.90;99.90
30572;DHT22;17348;50.948;10.696;2023-06-24T02:17:52;13.90;99.90
30572;DHT22;17348;50.948;10.696;2023-06-24T02:20:59;13.90;99.90
30572;DHT22;17348;50.948;10.696;2023-06-24T02:24:04;13.90;99.90
30572;DHT22;17348;50.948;10.696;2023-06-24T02:27:07;14.00;99.90
30572;DHT22;17348;50.948;10.696;2023-06-24T02:30:11;14.00;99.90
30572;DHT22;17348;50.948;10.696;2023-06-24T02:33:15;14.00;99.90
30572;DHT22;17348;50.948;10.696;2023-06-24T02:36:18;14.00;99.90
30572;DHT22;17348;50.948;10.696;2023-06-24T02:39:21;14.10;99.90
30572;DHT22;17348;50.948;10.696;2023-06-24T02:42:24;14.10;99.90
30572;DHT22;17348;50.948;10.696;2023-06-24T02:45:27;14.10;99.90
30572;DHT22;17348;50.948;10.696;2023-06-24T02:48:31;14.20;99.90
30572;DHT22;17348;50.948;10.696;2023-06-24T02:51:35;14.10;99.90
30572;DHT22;17348;50.948;10.696;2023-06-24T02:54:39;14.10;99.90
30572;DHT22;17348;50.948;10.696;2023-06-24T02:57:42;14.10;99.90
30572;DHT22;17348;50.948;10.696;2023-06-24T03:00:45;14.10;99.90
30572;DHT22;17348;50.948;10.696;2023-06-24T03:03:49;14.10;99.90
30572;DHT22;17348;50.948;10.696;2023-06-24T03:06:53;14.10;99.90
30572;DHT22;17348;50.948;10.696;2023-06-24T03:09:55;14.10;99.90
30572;DHT22;17348;50.948;10.696;2023-06-24T03:12:59;14.10;99.90
30572;DHT22;17348;50.948;10.696;2023-06-24T03:16:01;14.10;99.90
30572;DHT22;17348;50.948;10.696;2023-06-24T03:19:04;14.10;99.90
30572;DHT22;17348;50.948;10.696;2023-06-24T03:22:07;14.10;99.90
30572;DHT22;17348;50.948;10.696;2023-06-24T03:25:10;14.10;99.90
30572;DHT22;17348;50.948;10.696;2023-06-24T03:28:12;14.10;99.90
30572;DHT22;17348;50.948;10.696;2023-06-24T03:31:14;14.10;99.90
30572;DHT22;17348;50.948;10.696;2023-06-24T03:34:17;14.10;99.90
30572;DHT22;17348;50.948;10.696;2023-06-24T03:37:21;14.20;99.90
30572;DHT22;17348;50.948;10.696;2023-06-24T03:40:23;14.20;99.90
30572;DHT22;17348;50.948;10.696;2023-06-24T03:43:26;14.30;99.90
30572;DHT22;17348;50.948;10.696;2023-06-24T03:46:31;14.40;99.90
30572;DHT22;17348;50.948;10.696;2023-06-24T03:49:34;14.50;99.90
30572;DHT22;17348;50.948;10.696;2023-06-24T03:52:37;14.50;99.90
30572;DHT22;17348;50.948;10.696;2023-06-24T03:55:40;14.50;99.90
30572;DHT22;17348;50.948;10.696;2023-06-24T03:58:42;14.50;99.90
30572;DHT22;17348;50.948;10.696;2023-06-24T04:01:44;14.30;99.90
30572;DHT22;17348;50.948;10.696;2023-06-24T04:04:47;14.20;99.90
30572;DHT22;17348;50.948;10.696;2023-06-24T04:07:52;14.10;99.90
30572;DHT22;17348;50.948;10.696;2023-06-24T04:10:55;14.10;99.90
30572;DHT22;17348;50.948;10.696;2023-06-24T04:13:57;14.10;99.90
30572;DHT22;17348;50.948;10.696;2023-06-24T04:16:59;14.10;99.90
30572;DHT22;17348;50.948;10.696;2023-06-24T04:20:03;14.10;99.90
30572;DHT22;17348;50.948;10.696;2023-06-24T04:23:09;14.20;99.90
30572;DHT22;17348;50.948;10.696;2023-06-24T04:26:11;14.20;99.90
30572;DHT22;17348;50.948;10.696;2023-06-24T04:29:14;14.30;99.90
30572;DHT22;17348;50.948;10.696;2023-06-24T04:32:16;14.50;99.90
30572;DHT22;17348;50.948;10.696;2023-06-24T04:35:18;14.50;99.90
30572;DHT22;17348;50.948;10.696;2023-06-24T04:38:22;14.60;99.90
30572;DHT22;17348;50.948;10.696;2023-06-24T04:41:25;14.70;99.90
30572;DHT22;17348;50.948;10.696;2023-06-24T04:44:27;14.80;99.90
30572;DHT22;17348;50.948;10.696;2023-06-24T04:47:29;14.90;99.90
30572;DHT22;17348;50.948;10.696;2023-06-24T04:50:32;14.90;99.90
30572;DHT22;17348;50.948;10.696;2023-06-24T04:53:35;15.00;99.90
30572;DHT22;17348;50.948;10.696;2023-06-24T04:56:38;15.00;99.90
30572;DHT22;17348;50.948;10.696;2023-06-24T04:59:40;15.10;99.90
30572;DHT22;17348;50.948;10.696;2023-06-24T05:02:43;15.10;99.90
30572;DHT22;17348;50.948;10.696;2023-06-24T05:05:48;15.20;99.90
30572;DHT22;17348;50.948;10.696;2023-06-24T05:08:51;15.30;99.90
30572;DHT22;17348;50.948;10.696;2023-06-24T05:11:54;15.40;99.90
30572;DHT22;17348;50.948;10.696;2023-06-24T05:14:56;15.50;99.90
30572;DHT22;17348;50.948;10.696;2023-06-24T05:17:59;15.70;99.90
30572;DHT22;17348;50.948;10.696;2023-06-24T05:21:01;15.90;99.90
30572;DHT22;17348;50.948;10.696;2023-06-24T05:24:05;15.90;99.90
30572;DHT22;17348;50.948;10.696;2023-06-24T05:27:08;16.00;99.90
30572;DHT22;17348;50.948;10.696;2023-06-24T05:30:11;16.10;99.90
30572;DHT22;17348;50.948;10.696;2023-06-24T05:33:13;16.20;99.90
30572;DHT22;17348;50.948;10.696;2023-06-24T05:36:16;16.30;99.90
30572;DHT22;17348;50.948;10.696;2023-06-24T05:39:20;16.30;99.90
30572;DHT22;17348;50.948;10.696;2023-06-24T05:42:22;16.50;99.90
30572;DHT22;17348;50.948;10.696;2023-06-24T05:45:27;16.50;99.90
30572;DHT22;17348;50.948;10.696;2023-06-24T05:48:29;16.60;99.90
30572;DHT22;17348;50.948;10.696;2023-06-24T05:51:31;16.70;99.90
30572;DHT22;17348;50.948;10.696;2023-06-24T05:54:35;16.80;99.90
30572;DHT22;17348;50.948;10.696;2023-06-24T05:57:37;16.90;99.90
30572;DHT22;17348;50.948;10.696;2023-06-24T06:00:39;17.00;99.90
30572;DHT22;17348;50.948;10.696;2023-06-24T06:03:42;17.00;99.90
30572;DHT22;17348;50.948;10.696;2023-06-24T06:06:44;17.10;99.90
30572;DHT22;17348;50.948;10.696;2023-06-24T06:09:48;17.30;99.90
30572;DHT22;17348;50.948;10.696;2023-06-24T06:12:50;17.40;99.90
30572;DHT22;17348;50.948;10.696;2023-06-24T06:15:53;17.50;99.90
30572;DHT22;17348;50.948;10.696;2023-06-24T06:18:56;17.60;99.90
30572;DHT22;17348;50.948;10.696;2023-06-24T06:21:58;17.70;99.90
30572;DHT22;17348;50.948;10.696;2023-06-24T06:25:02;17.70;99.90
30572;DHT22;17348;50.948;10.696;2023-06-24T06:28:05;17.80;99.90
30572;DHT22;17348;50.948;10.696;2023-06-24T06:31:07;17.90;99.90
30572;DHT22;17348;50.948;10.696;2023-06-24T06:34:09;17.90;99.90
30572;DHT22;17348;50.948;10.696;2023-06-24T06:37:11;17.90;99.90
30572;DHT22;17348;50.948;10.696;2023-06-24T06:40:15;18.00;99.90
30572;DHT22;17348;50.948;10.696;2023-06-24T06:43:17;18.10;99.90
30572;DHT22;17348;50.948;10.696;2023-06-24T06:46:20;18.20;99.90
30572;DHT22;17348;50.948;10.696;2023-06-24T06:49:22;18.30;99.90
30572;DHT22;17348;50.948;10.696;2023-06-24T06:52:25;18.30;99.90
30572;DHT22;17348;50.948;10.696;2023-06-24T06:55:30;18.40;99.90
30572;DHT22;17348;50.948;10.696;2023-06-24T06:58:32;18.50;99.90
30572;DHT22;17348;50.948;10.696;2023-06-24T07:01:34;18.50;99.90
30572;DHT22;17348;50.948;10.696;2023-06-24T07:04:37;18.60;99.90
30572;DHT22;17348;50.948;10.696;2023-06-24T07:07:39;18.70;99.90
30572;DHT22;17348;50.948;10.696;2023-06-24T07:10:44;18.80;99.90
30572;DHT22;17348;50.948;10.696;2023-06-24T07:13:46;18.80;99.90
30572;DHT22;17348;50.948;10.696;2023-06-24T07:16:51;18.90;99.90
30572;DHT22;17348;50.948;10.696;2023-06-24T07:19:54;19.00;99.90
30572;DHT22;17348;50.948;10.696;2023-06-24T07:22:56;19.20;99.90
30572;DHT22;17348;50.948;10.696;2023-06-24T07:26:00;19.30;99.90
30572;DHT22;17348;50.948;10.696;2023-06-24T07:29:06;19.40;99.90
30572;DHT22;17348;50.948;10.696;2023-06-24T07:32:08;19.50;99.90
30572;DHT22;17348;50.948;10.696;2023-06-24T07:35:11;19.60;99.90
30572;DHT22;17348;50.948;10.696;2023-06-24T07:38:14;19.70;99.90
30572;DHT22;17348;50.948;10.696;2023-06-24T07:41:18;19.80;99.90
30572;DHT22;17348;50.948;10.696;2023-06-24T07:44:20;20.10;99.90
30572;DHT22;17348;50.948;10.696;2023-06-24T07:47:22;20.40;99.90
30572;DHT22;17348;50.948;10.696;2023-06-24T07:50:25;20.30;99.90
30572;DHT22;17348;50.948;10.696;2023-06-24T07:53:27;20.30;99.90
30572;DHT22;17348;50.948;10.696;2023-06-24T07:56:31;20.30;99.90
30572;DHT22;17348;50.948;10.696;2023-06-24T07:59:33;20.30;99.90
30572;DHT22;17348;50.948;10.696;2023-06-24T08:02:35;20.30;99.90
30572;DHT22;17348;50.948;10.696;2023-06-24T08:05:37;20.20;99.90
30572;DHT22;17348;50.948;10.696;2023-06-24T08:08:40;20.20;99.90
30572;DHT22;17348;50.948;10.696;2023-06-24T08:11:44;20.20;99.90
30572;DHT22;17348;50.948;10.696;2023-06-24T08:14:46;20.30;99.90
30572;DHT22;17348;50.948;10.696;2023-06-24T08:17:51;20.20;99.90
30572;DHT22;17348;50.948;10.696;2023-06-24T08:20:54;20.10;99.90
30572;DHT22;17348;50.948;10.696;2023-06-24T08:23:56;20.20;99.90
30572;DHT22;17348;50.948;10.696;2023-06-24T08:27:00;20.20;99.90
30572;DHT22;17348;50.948;10.696;2023-06-24T08:30:03;20.30;99.90
30572;DHT22;17348;50.948;10.696;2023-06-24T08:33:05;20.40;99.90
30572;DHT22;17348;50.948;10.696;2023-06-24T08:36:07;20.40;99.90
30572;DHT22;17348;50.948;10.696;2023-06-24T08:39:10;20.60;99.90
30572;DHT22;17348;50.948;10.696;2023-06-24T08:42:14;20.60;99.90
30572;DHT22;17348;50.948;10.696;2023-06-24T08:45:16;20.70;99.90
30572;DHT22;17348;50.948;10.696;2023-06-24T08:48:20;20.80;99.90
30572;DHT22;17348;50.948;10.696;2023-06-24T08:51:24;20.90;99.90
30572;DHT22;17348;50.948;10.696;2023-06-24T08:54:28;21.00;99.90
30572;DHT22;17348;50.948;10.696;2023-06-24T08:57:33;21.10;99.90
30572;DHT22;17348;50.948;10.696;2023-06-24T09:00:35;21.10;99.90
30572;DHT22;17348;50.948;10.696;2023-06-24T09:03:38;21.20;99.90
30572;DHT22;17348;50.948;10.696;2023-06-24T09:06:40;21.20;99.90
30572;DHT22;17348;50.948;10.696;2023-06-24T09:09:46;21.20;99.90
30572;DHT22;17348;50.948;10.696;2023-06-24T09:12:54;21.20;99.90
30572;DHT22;17348;50.948;10.696;2023-06-24T09:15:57;21.20;99.90
30572;DHT22;17348;50.948;10.696;2023-06-24T09:18:59;21.40;99.90
30572;DHT22;17348;50.948;10.696;2023-06-24T09:22:04;21.40;99.90
30572;DHT22;17348;50.948;10.696;2023-06-24T09:25:07;21.50;99.90
30572;DHT22;17348;50.948;10.696;2023-06-24T09:28:16;21.60;99.90
30572;DHT22;17348;50.948;10.696;2023-06-24T09:31:18;21.60;99.90
30572;DHT22;17348;50.948;10.696;2023-06-24T09:34:21;21.80;99.90
30572;DHT22;17348;50.948;10.696;2023-06-24T09:37:24;22.00;99.90
30572;DHT22;17348;50.948;10.696;2023-06-24T09:40:34;22.20;99.90
30572;DHT22;17348;50.948;10.696;2023-06-24T09:43:38;22.30;99.90
30572;DHT22;17348;50.948;10.696;2023-06-24T09:46:43;22.40;99.90
30572;DHT22;17348;50.948;10.696;2023-06-24T09:49:45;22.70;99.90
30572;DHT22;17348;50.948;10.696;2023-06-24T09:52:49;22.80;99.90
30572;DHT22;17348;50.948;10.696;2023-06-24T09:55:52;23.00;99.90
30572;DHT22;17348;50.948;10.696;2023-06-24T09:58:56;23.10;99.90
30572;DHT22;17348;50.948;10.696;2023-06-24T10:01:59;23.10;99.90
30572;DHT22;17348;50.948;10.696;2023-06-24T10:05:02;23.20;99.90
30572;DHT22;17348;50.948;10.696;2023-06-24T10:08:05;23.30;99.90
30572;DHT22;17348;50.948;10.696;2023-06-24T10:11:08;23.40;99.90
30572;DHT22;17348;50.948;10.696;2023-06-24T10:14:12;23.50;99.90
30572;DHT22;17348;50.948;10.696;2023-06-24T10:17:15;23.60;99.90
30572;DHT22;17348;50.948;10.696;2023-06-24T10:20:24;23.70;99.90
30572;DHT22;17348;50.948;10.696;2023-06-24T10:23:30;23.80;99.90
30572;DHT22;17348;50.948;10.696;2023-06-24T10:26:36;24.00;99.90
30572;DHT22;17348;50.948;10.696;2023-06-24T10:29:40;23.90;99.90
30572;DHT22;17348;50.948;10.696;2023-06-24T10:32:51;24.00;99.90
30572;DHT22;17348;50.948;10.696;2023-06-24T10:35:53;24.20;99.90
30572;DHT22;17348;50.948;10.696;2023-06-24T10:38:56;24.30;99.90
30572;DHT22;17348;50.948;10.696;2023-06-24T10:42:27;24.40;99.90
30572;DHT22;17348;50.948;10.696;2023-06-24T10:45:32;24.50;99.90
30572;DHT22;17348;50.948;10.696;2023-06-24T10:48:37;24.40;99.90
30572;DHT22;17348;50.948;10.696;2023-06-24T10:51:39;24.40;99.90
30572;DHT22;17348;50.948;10.696;2023-06-24T10:54:43;24.50;99.90
30572;DHT22;17348;50.948;10.696;2023-06-24T10:57:46;24.70;99.90
30572;DHT22;17348;50.948;10.696;2023-06-24T11:00:49;24.80;99.90
30572;DHT22;17348;50.948;10.696;2023-06-24T11:03:52;24.60;99.90
30572;DHT22;17348;50.948;10.696;2023-06-24T11:06:58;24.70;99.90
30572;DHT22;17348;50.948;10.696;2023-06-24T11:10:02;24.80;99.90
30572;DHT22;17348;50.948;10.696;2023-06-24T11:13:05;24.90;99.90
30572;DHT22;17348;50.948;10.696;2023-06-24T11:16:09;24.90;99.90
30572;DHT22;17348;50.948;10.696;2023-06-24T11:19:12;25.10;99.90
30572;DHT22;17348;50.948;10.696;2023-06-24T11:22:15;25.20;99.90
30572;DHT22;17348;50.948;10.696;2023-06-24T11:25:19;25.10;99.90
30572;DHT22;17348;50.948;10.696;2023-06-24T11:28:22;25.10;99.90
30572;DHT22;17348;50.948;10.696;2023-06-24T11:31:26;25.20;99.90
30572;DHT22;17348;50.948;10.696;2023-06-24T11:34:29;25.10;99.90
30572;DHT22;17348;50.948;10.696;2023-06-24T11:37:32;25.20;99.90
30572;DHT22;17348;50.948;10.696;2023-06-24T11:40:34;25.30;99.90
30572;DHT22;17348;50.948;10.696;2023-06-24T11:43:37;25.30;99.90
30572;DHT22;17348;50.948;10.696;2023-06-24T11:46:40;25.30;99.90
30572;DHT22;17348;50.948;10.696;2023-06-24T11:49:49;25.10;99.90
30572;DHT22;17348;50.948;10.696;2023-06-24T11:52:53;24.90;99.90
30572;DHT22;17348;50.948;10.696;2023-06-24T11:55:56;24.80;99.90
30572;DHT22;17348;50.948;10.696;2023-06-24T11:58:58;24.70;99.90
30572;DHT22;17348;50.948;10.696;2023-06-24T12:02:02;24.70;99.90
30572;DHT22;17348;50.948;10.696;2023-06-24T12:05:05;24.90;99.90
30572;DHT22;17348;50.948;10.696;2023-06-24T12:08:10;25.10;99.90
30572;DHT22;17348;50.948;10.696;2023-06-24T12:11:14;25.30;99.90
30572;DHT22;17348;50.948;10.696;2023-06-24T12:14:16;25.30;99.90
30572;DHT22;17348;50.948;10.696;2023-06-24T12:17:20;25.30;99.90
30572;DHT22;17348;50.948;10.696;2023-06-24T12:20:23;25.20;99.90
30572;DHT22;17348;50.948;10.696;2023-06-24T12:23:26;25.40;99.90
30572;DHT22;17348;50.948;10.696;2023-06-24T12:26:28;25.70;99.90
30572;DHT22;17348;50.948;10.696;2023-06-24T12:29:30;25.80;99.90
30572;DHT22;17348;50.948;10.696;2023-06-24T12:32:34;25.60;99.90
30572;DHT22;17348;50.948;10.696;2023-06-24T12:35:36;25.60;99.90
30572;DHT22;17348;50.948;10.696;2023-06-24T12:38:39;25.50;99.90
30572;DHT22;17348;50.948;10.696;2023-06-24T12:41:41;25.40;99.90
30572;DHT22;17348;50.948;10.696;2023-06-24T12:44:43;25.50;99.90
30572;DHT22;17348;50.948;10.696;2023-06-24T12:47:47;25.60;99.90
30572;DHT22;17348;50.948;10.696;2023-06-24T12:50:51;26.00;99.90
30572;DHT22;17348;50.948;10.696;2023-06-24T12:53:54;26.00;99.90
30572;DHT22;17348;50.948;10.696;2023-06-24T12:56:56;25.90;99.90
30572;DHT22;17348;50.948;10.696;2023-06-24T12:59:59;25.70;99.90
30572;DHT22;17348;50.948;10.696;2023-06-24T13:03:02;25.50;99.90
30572;DHT22;17348;50.948;10.696;2023-06-24T13:06:05;25.30;99.90
30572;DHT22;17348;50.948;10.696;2023-06-24T13:09:08;25.30;99.90
30572;DHT22;17348;50.948;10.696;2023-06-24T13:12:10;25.50;99.90
30572;DHT22;17348;50.948;10.696;2023-06-24T13:15:12;25.60;99.90
30572;DHT22;17348;50.948;10.696;2023-06-24T13:18:16;25.50;99.90
30572;DHT22;17348;50.948;10.696;2023-06-24T13:21:20;25.50;99.90
30572;DHT22;17348;50.948;10.696;2023-06-24T13:24:22;25.40;99.90
30572;DHT22;17348;50.948;10.696;2023-06-24T13:27:26;25.50;99.90
30572;DHT22;17348;50.948;10.696;2023-06-24T13:30:28;25.80;99.90
30572;DHT22;17348;50.948;10.696;2023-06-24T13:33:32;26.10;99.90
30572;DHT22;17348;50.948;10.696;2023-06-24T13:36:35;26.20;99.90
30572;DHT22;17348;50.948;10.696;2023-06-24T13:39:38;26.20;99.90
30572;DHT22;17348;50.948;10.696;2023-06-24T13:42:40;26.40;99.90
30572;DHT22;17348;50.948;10.696;2023-06-24T13:45:42;26.70;99.90
30572;DHT22;17348;50.948;10.696;2023-06-24T13:48:46;26.80;99.90
30572;DHT22;17348;50.948;10.696;2023-06-24T13:51:49;26.80;99.90
30572;DHT22;17348;50.948;10.696;2023-06-24T13:54:51;26.80;99.90
30572;DHT22;17348;50.948;10.696;2023-06-24T13:57:53;26.60;99.90
30572;DHT22;17348;50.948;10.696;2023-06-24T14:00:56;26.50;99.90
30572;DHT22;17348;50.948;10.696;2023-06-24T14:03:59;26.20;99.90
30572;DHT22;17348;50.948;10.696;2023-06-24T14:07:02;26.20;99.90
30572;DHT22;17348;50.948;10.696;2023-06-24T14:10:06;26.30;99.90
30572;DHT22;17348;50.948;10.696;2023-06-24T14:13:08;26.50;99.90
30572;DHT22;17348;50.948;10.696;2023-06-24T14:16:11;26.30;99.90
30572;DHT22;17348;50.948;10.696;2023-06-24T14:19:15;26.30;99.90
30572;DHT22;17348;50.948;10.696;2023-06-24T14:22:18;26.30;99.90
30572;DHT22;17348;50.948;10.696;2023-06-24T14:25:20;26.40;99.90
30572;DHT22;17348;50.948;10.696;2023-06-24T14:28:23;26.30;99.90
30572;DHT22;17348;50.948;10.696;2023-06-24T14:31:25;26.40;99.90
30572;DHT22;17348;50.948;10.696;2023-06-24T14:34:29;26.50;99.90
30572;DHT22;17348;50.948;10.696;2023-06-24T14:37:31;26.60;99.90
30572;DHT22;17348;50.948;10.696;2023-06-24T14:40:34;26.80;99.90
30572;DHT22;17348;50.948;10.696;2023-06-24T14:43:36;27.00;99.90
30572;DHT22;17348;50.948;10.696;2023-06-24T14:46:39;27.00;99.90
30572;DHT22;17348;50.948;10.696;2023-06-24T14:49:42;26.80;99.90
30572;DHT22;17348;50.948;10.696;2023-06-24T14:52:45;26.60;99.90
30572;DHT22;17348;50.948;10.696;2023-06-24T14:55:47;26.60;99.90
30572;DHT22;17348;50.948;10.696;2023-06-24T14:58:50;26.70;99.90
30572;DHT22;17348;50.948;10.696;2023-06-24T15:01:52;26.90;99.90
30572;DHT22;17348;50.948;10.696;2023-06-24T15:04:56;27.00;99.90
30572;DHT22;17348;50.948;10.696;2023-06-24T15:07:59;27.10;99.90
30572;DHT22;17348;50.948;10.696;2023-06-24T15:11:02;27.10;99.90
30572;DHT22;17348;50.948;10.696;2023-06-24T15:14:04;26.90;99.90
30572;DHT22;17348;50.948;10.696;2023-06-24T15:17:06;26.90;99.90
30572;DHT22;17348;50.948;10.696;2023-06-24T15:20:11;27.00;99.90
30572;DHT22;17348;50.948;10.696;2023-06-24T15:23:13;27.00;99.90
30572;DHT22;17348;50.948;10.696;2023-06-24T15:26:16;27.00;99.90
30572;DHT22;17348;50.948;10.696;2023-06-24T15:29:18;27.00;99.90
30572;DHT22;17348;50.948;10.696;2023-06-24T15:32:20;27.10;99.90
30572;DHT22;17348;50.948;10.696;2023-06-24T15:35:24;26.90;99.90
30572;DHT22;17348;50.948;10.696;2023-06-24T15:38:27;26.70;99.90
30572;DHT22;17348;50.948;10.696;2023-06-24T15:41:29;26.50;99.90
30572;DHT22;17348;50.948;10.696;2023-06-24T15:44:31;26.40;99.90
30572;DHT22;17348;50.948;10.696;2023-06-24T15:47:34;26.30;99.90
30572;DHT22;17348;50.948;10.696;2023-06-24T15:50:39;26.50;99.90
30572;DHT22;17348;50.948;10.696;2023-06-24T15:53:43;26.50;99.90
30572;DHT22;17348;50.948;10.696;2023-06-24T15:56:46;26.50;99.90
30572;DHT22;17348;50.948;10.696;2023-06-24T15:59:48;26.50;99.90
30572;DHT22;17348;50.948;10.696;2023-06-24T16:02:50;26.60;99.90
30572;DHT22;17348;50.948;10.696;2023-06-24T16:05:54;26.60;99.90
30572;DHT22;17348;50.948;10.696;2023-06-24T16:08:56;26.60;99.90
30572;DHT22;17348;50.948;10.696;2023-06-24T16:11:59;26.60;99.90
30572;DHT22;17348;50.948;10.696;2023-06-24T16:15:01;26.60;99.90
30572;DHT22;17348;50.948;10.696;2023-06-24T16:18:04;26.60;99.90
30572;DHT22;17348;50.948;10.696;2023-06-24T16:21:07;26.50;99.90
30572;DHT22;17348;50.948;10.696;2023-06-24T16:24:10;26.50;99.90
30572;DHT22;17348;50.948;10.696;2023-06-24T16:27:12;26.50;99.90
30572;DHT22;17348;50.948;10.696;2023-06-24T16:30:14;26.60;99.90
30572;DHT22;17348;50.948;10.696;2023-06-24T16:33:17;26.60;99.90
30572;DHT22;17348;50.948;10.696;2023-06-24T16:36:21;26.60;99.90
30572;DHT22;17348;50.948;10.696;2023-06-24T16:39:23;26.60;99.90
30572;DHT22;17348;50.948;10.696;2023-06-24T16:42:25;26.50;99.90
30572;DHT22;17348;50.948;10.696;2023-06-24T16:45:27;26.50;99.90
30572;DHT22;17348;50.948;10.696;2023-06-24T16:48:30;26.50;99.90
30572;DHT22;17348;50.948;10.696;2023-06-24T16:51:34;26.40;99.90
30572;DHT22;17348;50.948;10.696;2023-06-24T16:54:36;26.40;99.90
30572;DHT22;17348;50.948;10.696;2023-06-24T16:57:38;26.30;99.90
30572;DHT22;17348;50.948;10.696;2023-06-24T17:00:40;26.30;99.90
30572;DHT22;17348;50.948;10.696;2023-06-24T17:03:43;26.30;99.90
30572;DHT22;17348;50.948;10.696;2023-06-24T17:06:47;26.30;99.90
30572;DHT22;17348;50.948;10.696;2023-06-24T17:09:50;26.30;99.90
30572;DHT22;17348;50.948;10.696;2023-06-24T17:12:54;26.10;99.90
30572;DHT22;17348;50.948;10.696;2023-06-24T17:15:56;26.10;99.90
30572;DHT22;17348;50.948;10.696;2023-06-24T17:18:58;26.10;99.90
30572;DHT22;17348;50.948;10.696;2023-06-24T17:22:02;26.00;99.90
30572;DHT22;17348;50.948;10.696;2023-06-24T17:25:05;26.00;99.90
30572;DHT22;17348;50.948;10.696;2023-06-24T17:28:08;26.00;99.90
30572;DHT22;17348;50.948;10.696;2023-06-24T17:31:10;25.90;99.90
30572;DHT22;17348;50.948;10.696;2023-06-24T17:34:12;25.90;99.90
30572;DHT22;17348;50.948;10.696;2023-06-24T17:37:16;25.90;99.90
30572;DHT22;17348;50.948;10.696;2023-06-24T17:40:18;25.80;99.90
30572;DHT22;17348;50.948;10.696;2023-06-24T17:43:21;25.80;99.90
30572;DHT22;17348;50.948;10.696;2023-06-24T17:46:23;25.80;99.90
30572;DHT22;17348;50.948;10.696;2023-06-24T17:49:25;25.80;99.90
30572;DHT22;17348;50.948;10.696;2023-06-24T17:52:29;25.70;99.90
30572;DHT22;17348;50.948;10.696;2023-06-24T17:55:33;25.70;99.90
30572;DHT22;17348;50.948;10.696;2023-06-24T17:58:37;25.70;99.90
30572;DHT22;17348;50.948;10.696;2023-06-24T18:01:40;25.60;99.90
30572;DHT22;17348;50.948;10.696;2023-06-24T18:04:42;25.60;99.90
30572;DHT22;17348;50.948;10.696;2023-06-24T18:07:46;25.60;99.90
30572;DHT22;17348;50.948;10.696;2023-06-24T18:10:48;25.50;99.90
30572;DHT22;17348;50.948;10.696;2023-06-24T18:13:50;25.50;99.90
30572;DHT22;17348;50.948;10.696;2023-06-24T18:16:53;25.40;99.90
30572;DHT22;17348;50.948;10.696;2023-06-24T18:19:55;25.40;99.90
30572;DHT22;17348;50.948;10.696;2023-06-24T18:22:59;25.30;99.90
30572;DHT22;17348;50.948;10.696;2023-06-24T18:26:01;25.30;99.90
30572;DHT22;17348;50.948;10.696;2023-06-24T18:29:04;25.20;99.90
30572;DHT22;17348;50.948;10.696;2023-06-24T18:32:07;25.10;99.90
30572;DHT22;17348;50.948;10.696;2023-06-24T18:35:10;25.00;99.90
30572;DHT22;17348;50.948;10.696;2023-06-24T18:38:13;25.00;99.90
30572;DHT22;17348;50.948;10.696;2023-06-24T18:41:16;24.90;99.90
30572;DHT22;17348;50.948;10.696;2023-06-24T18:44:18;24.80;99.90
30572;DHT22;17348;50.948;10.696;2023-06-24T18:47:21;24.70;99.90
30572;DHT22;17348;50.948;10.696;2023-06-24T18:50:23;24.60;99.90
30572;DHT22;17348;50.948;10.696;2023-06-24T18:53:27;24.50;99.90
30572;DHT22;17348;50.948;10.696;2023-06-24T18:56:29;24.40;99.90
30572;DHT22;17348;50.948;10.696;2023-06-24T18:59:31;24.40;99.90
30572;DHT22;17348;50.948;10.696;2023-06-24T19:02:34;24.20;99.90